Time;durP1;ratioP1;P1;durP2;ratioP2;P2;SDS_P1;SDS_P2;PMS_P1;PMS_P2;Temp;Humidity;BMP_temperature;BMP_pressure;BME280_temperature;BME280_humidity;BME280_pressure;Samples;Min_cycle;Max_cycle;Signal;HPM_P1;HPM_P2
2024/04/19 00:02:15;;;;;;;0.00;0.00;;;;;;;5.76;100.00;98596.64;106162;1256;72554;-55
2024/04/19 00:04:41;;;;;;;1.00;0.00;;;;;;;5.78;100.00;98597.45;106171;1256;61257;-57
2024/04/19 00:07:08;;;;;;;0.00;0.00;;;;;;;5.79;100.00;98599.35;106334;1256;61374;-56
2024/04/19 00:09:44;;;;;;;0.90;0.00;;;;;;;5.79;100.00;98604.00;106177;1254;74319;-57
2024/04/19 00:12:11;;;;;;;0.00;0.00;;;;;;;5.77;100.00;98604.84;106495;1256;67461;-57
2024/04/19 00:14:38;;;;;;;0.00;0.00;;;;;;;5.73;100.00;98606.05;106447;1256;72014;-57
2024/04/19 00:17:05;;;;;;;0.00;0.00;;;;;;;5.71;100.00;98604.53;106241;1256;61241;-57
2024/04/19 00:19:32;;;;;;;0.00;0.00;;;;;;;5.69;100.00;98605.18;106026;1259;62155;-56
2024/04/19 00:21:59;;;;;;;0.00;0.00;;;;;;;5.69;100.00;98606.27;106162;1256;75068;-57
2024/04/19 00:24:26;;;;;;;0.00;0.00;;;;;;;5.69;100.00;98603.92;106522;1256;66944;-58
2024/04/19 00:26:52;;;;;;;0.00;0.00;;;;;;;5.70;100.00;98607.95;106166;1256;74181;-56
2024/04/19 00:29:39;;;;;;;0.00;0.00;;;;;;;5.70;100.00;98608.30;106112;1253;66464;-57
2024/04/19 00:32:06;;;;;;;0.00;0.00;;;;;;;5.68;100.00;98609.83;106717;1256;59953;-55
2024/04/19 00:34:33;;;;;;;0.00;0.00;;;;;;;5.66;100.00;98608.86;106060;1256;74614;-56
2024/04/19 00:37:00;;;;;;;0.00;0.00;;;;;;;5.63;100.00;98609.20;106137;1257;65260;-57
2024/04/19 00:39:27;;;;;;;0.00;0.00;;;;;;;5.58;100.00;98608.00;106144;1256;72500;-56
2024/04/19 00:41:54;;;;;;;0.00;0.00;;;;;;;5.55;100.00;98608.50;106158;1256;61605;-56
2024/04/19 00:44:21;;;;;;;0.60;0.00;;;;;;;5.52;100.00;98609.92;106482;1256;60855;-56
2024/04/19 00:46:48;;;;;;;0.00;0.00;;;;;;;5.52;100.00;98611.50;106081;1257;75199;-57
2024/04/19 00:49:30;;;;;;;0.00;0.00;;;;;;;5.53;100.00;98614.52;106168;1256;67124;-57
2024/04/19 00:51:57;;;;;;;0.00;0.00;;;;;;;5.54;100.00;98617.05;106231;1256;70717;-56
2024/04/19 00:54:24;;;;;;;0.00;0.00;;;;;;;5.56;100.00;98617.20;106222;1256;61360;-56
2024/04/19 00:56:51;;;;;;;0.30;0.00;;;;;;;5.56;100.00;98620.92;106111;1259;62011;-56
2024/04/19 00:59:19;;;;;;;0.00;0.00;;;;;;;5.55;100.00;98626.13;106067;1259;74021;-57
2024/04/19 01:01:45;;;;;;;3.50;0.00;;;;;;;5.55;100.00;98617.75;105995;1266;67700;-57
2024/04/19 01:04:12;;;;;;;0.20;0.10;;;;;;;5.57;100.00;98621.59;106009;1261;72309;-57
2024/04/19 01:06:40;;;;;;;0.10;0.00;;;;;;;5.58;100.00;98622.78;106263;1259;61307;-57
2024/04/19 01:09:07;;;;;;;0.00;0.00;;;;;;;5.59;100.00;98625.40;109100;1253;59256;-56
2024/04/19 01:11:33;;;;;;;0.00;0.00;;;;;;;5.61;100.00;98624.74;106352;1257;73057;-57
2024/04/19 01:14:00;;;;;;;0.00;0.00;;;;;;;5.65;100.00;98627.09;106150;1254;67110;-56
2024/04/19 01:16:28;;;;;;;1.40;0.00;;;;;;;5.67;100.00;98625.54;106169;1254;72602;-56
2024/04/19 01:18:54;;;;;;;0.00;0.00;;;;;;;5.69;100.00;98629.71;106342;1256;61320;-55
2024/04/19 01:21:21;;;;;;;0.00;0.00;;;;;;;5.70;100.00;98632.32;106402;1257;62029;-57
2024/04/19 01:23:50;;;;;;;0.10;0.10;;;;;;;5.71;100.00;98638.71;106563;1253;74750;-57
2024/04/19 01:26:17;;;;;;;0.00;0.00;;;;;;;5.72;100.00;98644.70;107465;1258;67044;-56
2024/04/19 01:28:45;;;;;;;0.00;0.00;;;;;;;5.74;100.00;98643.94;106322;1257;73090;-57
2024/04/19 01:31:11;;;;;;;0.00;0.00;;;;;;;5.75;100.00;98641.92;106785;1257;61883;-54
2024/04/19 01:33:38;;;;;;;1.60;0.10;;;;;;;5.77;100.00;98653.77;106866;1255;60837;-58
2024/04/19 01:36:05;;;;;;;0.10;0.00;;;;;;;5.78;100.00;98656.91;106117;1264;75954;-55
2024/04/19 01:38:47;;;;;;;0.00;0.00;;;;;;;5.80;100.00;98658.05;106225;1259;66881;-59
2024/04/19 01:41:14;;;;;;;0.00;0.00;;;;;;;5.81;100.00;98662.29;106292;1253;73778;-54
2024/04/19 01:43:42;;;;;;;2.90;0.00;;;;;;;5.81;100.00;98659.98;106107;1255;61211;-54
2024/04/19 01:48:59;;;;;;;0.10;0.00;;;;;;;5.79;100.00;98674.69;102654;1295;600938;-56
2024/04/19 01:51:26;;;;;;;0.10;0.10;;;;;;;5.74;100.00;98688.23;105213;1266;60080;-58
2024/04/19 01:53:53;;;;;;;0.10;0.10;;;;;;;5.74;100.00;98688.42;105295;1266;60119;-55
2024/04/19 01:56:20;;;;;;;0.10;0.10;;;;;;;5.76;100.00;98686.02;108239;1265;72959;-58
2024/04/19 01:58:47;;;;;;;0.00;0.00;;;;;;;5.78;100.00;98686.48;108437;1263;66128;-57
2024/04/19 02:01:14;;;;;;;0.00;0.00;;;;;;;5.80;100.00;98686.38;108336;1266;72599;-57
2024/04/19 02:03:41;;;;;;;0.40;0.00;;;;;;;5.83;100.00;98689.61;108495;1262;187729;-55
2024/04/19 02:06:09;;;;;;;0.10;0.10;;;;;;;5.85;100.00;98689.54;108532;1262;65871;-55
2024/04/19 02:08:36;;;;;;;0.10;0.10;;;;;;;5.86;100.00;98685.41;108465;1263;72649;-56
2024/04/19 02:11:03;;;;;;;0.10;0.10;;;;;;;5.88;100.00;98690.13;108502;1263;68205;-56
2024/04/19 02:13:30;;;;;;;0.10;0.10;;;;;;;5.86;100.00;98691.06;108398;1263;71096;-55
2024/04/19 02:15:57;;;;;;;1.40;0.00;;;;;;;5.86;100.00;98693.74;108560;1263;62032;-55
2024/04/19 02:18:25;;;;;;;4.00;0.10;;;;;;;5.86;100.00;98692.14;106560;1267;60691;-56
2024/04/19 02:20:52;;;;;;;0.20;0.10;;;;;;;5.86;100.00;98701.58;108391;1263;72727;-56
2024/04/19 02:23:36;;;;;;;0.20;0.10;;;;;;;5.87;100.00;98702.40;108509;1263;65686;-53
2024/04/19 02:26:04;;;;;;;0.10;0.10;;;;;;;5.91;100.00;98706.90;107473;1267;71510;-54
2024/04/19 02:31:18;;;;;;;0.10;0.10;;;;;;;5.95;100.00;98718.29;106092;1259;63329;-57
2024/04/19 02:33:45;;;;;;;0.20;0.20;;;;;;;5.98;100.00;98720.09;106095;1254;74529;-57
2024/04/19 02:36:12;;;;;;;0.40;0.20;;;;;;;6.00;100.00;98726.08;106539;1253;67954;-57
2024/04/19 02:38:39;;;;;;;0.20;0.20;;;;;;;5.99;100.00;98729.67;106000;1259;71401;-57
2024/04/19 02:41:05;;;;;;;0.50;0.20;;;;;;;5.98;100.00;98733.26;106018;1259;61958;-58
2024/04/19 02:43:32;;;;;;;0.20;0.10;;;;;;;5.99;100.00;98731.81;106024;1254;59417;-57
2024/04/19 02:46:05;;;;;;;0.20;0.20;;;;;;;6.00;100.00;98732.99;106095;1254;72559;-56
2024/04/19 02:48:32;;;;;;;0.10;0.10;;;;;;;6.04;100.00;98733.71;106601;1258;66130;-57
2024/04/19 02:51:01;;;;;;;0.50;0.20;;;;;;;6.08;100.00;98737.27;106081;1256;72555;-55
2024/04/19 02:53:31;;;;;;;0.90;0.30;;;;;;;6.11;100.00;98736.81;106162;1254;60447;-56
2024/04/19 02:55:58;;;;;;;0.50;0.30;;;;;;;6.15;100.00;98744.27;106025;1254;60476;-56
2024/04/19 02:58:25;;;;;;;0.40;0.30;;;;;;;6.17;100.00;98749.86;109023;1254;74081;-59
2024/04/19 03:00:52;;;;;;;0.50;0.40;;;;;;;6.17;100.00;98749.52;106360;1259;68188;-56
2024/04/19 03:03:18;;;;;;;0.20;0.20;;;;;;;6.17;100.00;98750.23;106032;1259;71395;-58
2024/04/19 03:05:46;;;;;;;0.30;0.30;;;;;;;6.18;100.00;98761.76;107107;1254;60692;-56
2024/04/19 03:08:13;;;;;;;0.20;0.20;;;;;;;6.19;100.00;98759.93;106413;1258;60588;-57
2024/04/19 03:10:40;;;;;;;0.30;0.30;;;;;;;6.21;100.00;98761.45;106025;1254;73784;-57
2024/04/19 03:13:08;;;;;;;0.30;0.30;;;;;;;6.24;100.00;98765.40;106994;1258;67298;-54
2024/04/19 03:15:34;;;;;;;0.30;0.30;;;;;;;6.26;100.00;98767.05;106096;1254;72527;-57
2024/04/19 03:18:01;;;;;;;0.70;0.30;;;;;;;6.29;100.00;98772.30;105962;1270;60968;-56
2024/04/19 03:20:28;;;;;;;0.50;0.40;;;;;;;6.29;100.00;98777.98;105969;1258;60536;-57
2024/04/19 03:22:55;;;;;;;1.50;0.40;;;;;;;6.28;100.00;98780.70;105927;1259;74161;-55
2024/04/19 03:25:22;;;;;;;1.40;0.30;;;;;;;6.28;100.00;98783.73;105975;1259;66743;-55
2024/04/19 03:27:49;;;;;;;0.70;0.50;;;;;;;6.28;100.00;98785.17;105958;1253;73145;-57
2024/04/19 03:30:26;;;;;;;0.60;0.40;;;;;;;6.27;100.00;98792.86;106183;1254;61199;-57
2024/04/19 03:32:53;;;;;;;0.80;0.40;;;;;;;6.29;100.00;98796.70;106218;1256;60438;-57
2024/04/19 03:35:20;;;;;;;3.60;0.50;;;;;;;6.30;100.00;98804.13;105965;1255;74346;-57
2024/04/19 03:37:47;;;;;;;1.40;0.40;;;;;;;6.32;100.00;98799.94;105973;1254;65995;-57
2024/04/19 03:40:14;;;;;;;2.10;0.70;;;;;;;6.34;100.00;98806.61;106165;1255;73068;-57
2024/04/19 03:42:46;;;;;;;0.70;0.70;;;;;;;6.36;100.00;98812.60;106036;1254;60312;-57
2024/04/19 03:47:59;;;;;;;0.80;0.50;;;;;;;6.37;100.00;98821.29;106046;1254;74265;-57
2024/04/19 03:50:26;;;;;;;2.20;0.60;;;;;;;6.37;100.00;98828.77;106517;1254;66942;-57
2024/04/19 03:52:54;;;;;;;1.10;0.60;;;;;;;6.36;100.00;98831.82;106042;1259;73044;-57
2024/04/19 03:55:21;;;;;;;1.60;0.50;;;;;;;6.36;100.00;98831.30;106875;1253;60636;-58
2024/04/19 03:57:47;;;;;;;0.60;0.60;;;;;;;6.38;100.00;98839.58;106127;1262;60355;-57
2024/04/19 04:00:14;;;;;;;3.60;0.50;;;;;;;6.40;100.00;98844.09;106113;1258;72362;-55
2024/04/19 04:02:41;;;;;;;0.70;0.50;;;;;;;6.43;100.00;98849.15;105995;1259;66153;-58
2024/04/19 04:05:08;;;;;;;0.60;0.50;;;;;;;6.46;100.00;98850.42;106002;1257;72110;-56
2024/04/19 04:07:35;;;;;;;0.80;0.60;;;;;;;6.49;100.00;98859.55;106149;1261;60341;-54
2024/04/19 04:10:02;;;;;;;2.20;0.60;;;;;;;6.50;100.00;98859.52;106050;1254;60788;-53
2024/04/19 04:12:32;;;;;;;2.80;0.60;;;;;;;6.51;100.00;98864.66;106211;1256;74051;-55
2024/04/19 04:14:59;;;;;;;0.70;0.60;;;;;;;6.51;100.00;98864.27;106142;1254;67066;-53
2024/04/19 04:17:26;;;;;;;0.60;0.50;;;;;;;6.52;100.00;98868.70;106058;1254;73324;-53
2024/04/19 04:19:54;;;;;;;0.90;0.60;;;;;;;6.55;100.00;98877.45;106026;1259;61301;-53
2024/04/19 04:22:21;;;;;;;1.70;0.60;;;;;;;6.58;100.00;98880.54;106642;1259;60492;-55
2024/04/19 04:24:48;;;;;;;3.20;0.60;;;;;;;6.64;100.00;98884.70;108193;1254;74117;-52
2024/04/19 04:27:14;;;;;;;3.10;0.60;;;;;;;6.68;100.00;98885.56;106129;1259;67280;-58
2024/04/19 04:29:41;;;;;;;0.90;0.60;;;;;;;6.73;100.00;98891.44;106093;1253;72623;-54
2024/04/19 04:32:08;;;;;;;0.60;0.60;;;;;;;6.78;100.00;98899.59;106030;1254;59383;-52
2024/04/19 04:34:35;;;;;;;1.00;0.50;;;;;;;6.83;100.00;98908.40;106077;1257;60403;-52
2024/04/19 04:37:02;;;;;;;1.70;0.60;;;;;;;6.91;100.00;98913.23;106266;1254;74228;-53
2024/04/19 04:39:29;;;;;;;2.00;0.60;;;;;;;6.99;100.00;98920.19;106138;1259;67439;-53
2024/04/19 04:41:56;;;;;;;0.60;0.50;;;;;;;7.06;100.00;98922.17;106018;1256;73231;-54
2024/04/19 04:44:23;;;;;;;0.80;0.50;;;;;;;7.10;100.00;98925.88;109005;1254;60655;-51
2024/04/19 04:46:50;;;;;;;0.40;0.40;;;;;;;7.14;100.00;98932.65;108993;1254;60606;-52
2024/04/19 04:49:17;;;;;;;0.90;0.60;;;;;;;7.17;100.00;98933.21;108825;1254;74293;-51
2024/04/19 04:51:44;;;;;;;2.60;0.60;;;;;;;7.19;100.00;98944.17;109058;1255;65731;-51
2024/04/19 04:54:10;;;;;;;1.20;0.70;;;;;;;7.20;100.00;98952.71;108995;1254;71462;-52
2024/04/19 04:56:37;;;;;;;0.70;0.60;;;;;;;7.20;100.00;98953.62;109108;1254;58932;-51
2024/04/19 04:59:04;;;;;;;3.70;0.60;;;;;;;7.19;100.00;98958.63;109076;1254;60770;-52
2024/04/19 05:01:30;;;;;;;0.60;0.60;;;;;;;7.16;100.00;98956.24;109055;1254;74199;-52
2024/04/19 05:03:57;;;;;;;0.60;0.50;;;;;;;7.16;100.00;98963.80;109023;1256;65575;-50
2024/04/19 05:06:24;;;;;;;1.20;0.50;;;;;;;7.17;100.00;98965.52;108958;1254;72421;-51
2024/04/19 05:08:51;;;;;;;0.80;0.40;;;;;;;7.19;100.00;98968.63;109030;1254;61127;-51
2024/04/19 05:11:18;;;;;;;0.60;0.50;;;;;;;7.23;100.00;98975.60;109130;1254;58853;-52
2024/04/19 05:13:44;;;;;;;0.50;0.50;;;;;;;7.26;100.00;98988.27;108984;1255;73659;-51
2024/04/19 05:16:11;;;;;;;3.50;0.50;;;;;;;7.29;100.00;98992.43;106988;1256;65792;-53
2024/04/19 05:18:38;;;;;;;0.60;0.50;;;;;;;7.31;100.00;98999.67;105944;1258;73132;-52
2024/04/19 05:21:05;;;;;;;0.90;0.60;;;;;;;7.32;100.00;99001.04;105963;1254;60442;-56
2024/04/19 05:23:31;;;;;;;1.00;0.50;;;;;;;7.30;100.00;99003.65;106061;1257;60440;-54
2024/04/19 05:26:02;;;;;;;0.80;0.50;;;;;;;7.30;100.00;99002.38;105984;1262;74657;-57
2024/04/19 05:28:28;;;;;;;1.20;0.40;;;;;;;7.31;100.00;99006.28;106424;1259;66658;-52
2024/04/19 05:30:57;;;;;;;0.90;0.40;;;;;;;7.31;100.00;99016.44;105996;1256;73291;-53
2024/04/19 05:33:24;;;;;;;1.90;0.60;;;;;;;7.34;100.00;99019.87;108497;1254;60666;-51
2024/04/19 05:35:51;;;;;;;3.20;0.40;;;;;;;7.36;100.00;99022.98;106111;1259;60401;-53
2024/04/19 05:38:18;;;;;;;0.70;0.50;;;;;;;7.39;100.00;99026.91;105894;1255;73120;-53
2024/04/19 05:40:46;;;;;;;0.50;0.50;;;;;;;7.42;100.00;99031.79;106125;1259;66953;-53
2024/04/19 05:43:13;;;;;;;1.40;0.50;;;;;;;7.45;100.00;99030.58;106324;1261;73074;-51
2024/04/19 05:45:39;;;;;;;1.80;0.60;;;;;;;7.49;100.00;99038.96;106074;1259;60868;-56
2024/04/19 05:48:07;;;;;;;0.50;0.50;;;;;;;7.54;100.00;99050.52;106033;1259;60441;-53
2024/04/19 05:50:34;;;;;;;2.70;0.50;;;;;;;7.61;100.00;99054.28;106134;1259;73770;-52
2024/04/19 05:53:01;;;;;;;0.60;0.40;;;;;;;7.69;100.00;99062.12;105971;1259;66445;-57
2024/04/19 05:55:28;;;;;;;0.70;0.60;;;;;;;7.77;100.00;99073.71;106037;1253;71728;-55
2024/04/19 05:57:54;;;;;;;5.20;0.60;;;;;;;7.83;100.00;99078.23;106067;1267;61265;-53
2024/04/19 06:00:21;;;;;;;0.80;0.50;;;;;;;7.85;100.00;99087.23;106030;1257;61366;-53
2024/04/19 06:02:48;;;;;;;0.40;0.40;;;;;;;7.85;100.00;99092.75;106073;1259;74027;-53
2024/04/19 06:05:15;;;;;;;2.30;0.60;;;;;;;7.84;100.00;99102.32;106025;1259;66337;-54
2024/04/19 06:07:41;;;;;;;2.70;0.60;;;;;;;7.80;100.00;99104.83;106070;1259;73648;-51
2024/04/19 06:10:08;;;;;;;0.90;0.50;;;;;;;7.76;100.00;99110.19;106134;1272;61576;-54
2024/04/19 06:12:35;;;;;;;1.30;0.50;;;;;;;7.73;100.00;99113.91;105978;1255;62104;-56
2024/04/19 06:15:02;;;;;;;4.30;0.50;;;;;;;7.73;100.00;99121.95;105968;1259;74859;-54
2024/04/19 06:17:30;;;;;;;0.90;0.60;;;;;;;7.73;100.00;99127.82;105906;1259;64960;-56
2024/04/19 06:19:56;;;;;;;3.40;0.50;;;;;;;7.71;100.00;99132.91;105819;1254;72142;-53
2024/04/19 06:22:23;;;;;;;0.60;0.60;;;;;;;7.68;100.00;99139.66;105864;1256;61526;-52
2024/04/19 06:24:50;;;;;;;0.60;0.60;;;;;;;7.65;100.00;99141.05;105874;1263;62009;-56
2024/04/19 06:27:17;;;;;;;1.00;0.50;;;;;;;7.60;100.00;99147.89;105913;1256;74551;-55
2024/04/19 06:29:43;;;;;;;1.10;0.50;;;;;;;7.57;100.00;99155.52;105907;1256;65936;-55
2024/04/19 06:32:10;;;;;;;2.10;0.80;;;;;;;7.55;100.00;99157.05;106061;1259;72715;-52
2024/04/19 06:34:37;;;;;;;0.70;0.40;;;;;;;7.54;100.00;99161.90;105998;1256;61286;-53
2024/04/19 06:37:04;;;;;;;0.50;0.50;;;;;;;7.56;100.00;99164.53;106145;1256;63147;-53
2024/04/19 06:39:31;;;;;;;3.60;0.50;;;;;;;7.61;100.00;99171.77;106062;1256;75611;-55
2024/04/19 06:41:59;;;;;;;0.70;0.50;;;;;;;7.65;100.00;99174.30;106257;1257;67355;-54
2024/04/19 06:44:26;;;;;;;0.70;0.50;;;;;;;7.65;100.00;99176.44;106717;1255;72738;-55
2024/04/19 06:46:52;;;;;;;0.60;0.50;;;;;;;7.64;100.00;99181.69;105969;1259;63663;-56
2024/04/19 06:49:19;;;;;;;0.60;0.50;;;;;;;7.61;100.00;99189.10;106262;1258;61323;-55
2024/04/19 06:51:46;;;;;;;1.10;0.50;;;;;;;7.58;100.00;99196.52;105940;1256;74958;-51
2024/04/19 06:54:13;;;;;;;1.50;0.90;;;;;;;7.57;100.00;99199.83;105978;1259;66370;-54
2024/04/19 06:56:40;;;;;;;0.60;0.50;;;;;;;7.55;100.00;99200.81;106261;1253;71817;-54
2024/04/19 06:59:07;;;;;;;0.60;0.50;;;;;;;7.52;100.00;99204.13;105974;1256;61805;-52
2024/04/19 07:01:35;;;;;;;1.80;0.70;;;;;;;7.52;100.00;99208.59;106438;1258;61037;-53
2024/04/19 07:04:02;;;;;;;2.00;0.70;;;;;;;7.54;100.00;99214.23;106542;1259;75078;-51
2024/04/19 07:06:30;;;;;;;0.80;0.70;;;;;;;7.58;100.00;99218.69;106466;1257;66824;-53
2024/04/19 07:09:09;;;;;;;1.70;0.80;;;;;;;7.61;100.00;99228.02;105984;1259;76191;-52
2024/04/19 07:11:37;;;;;;;1.10;0.60;;;;;;;7.63;100.00;99236.36;106336;1254;61181;-53
2024/04/19 07:14:04;;;;;;;0.60;0.50;;;;;;;7.63;100.00;99237.60;106003;1259;61030;-53
2024/04/19 07:16:30;;;;;;;2.60;0.60;;;;;;;7.65;100.00;99245.91;105961;1259;73299;-53
2024/04/19 07:18:58;;;;;;;1.80;0.50;;;;;;;7.65;100.00;99252.48;105993;1258;65422;-54
2024/04/19 07:21:25;;;;;;;0.90;0.60;;;;;;;7.63;100.00;99256.86;105988;1259;73998;-52
2024/04/19 07:23:52;;;;;;;0.80;0.50;;;;;;;7.58;100.00;99254.72;107990;1256;61115;-53
2024/04/19 07:26:19;;;;;;;0.90;0.80;;;;;;;7.55;100.00;99264.36;106043;1260;61708;-52
2024/04/19 07:28:46;;;;;;;1.20;0.60;;;;;;;7.54;100.00;99269.39;106315;1257;75611;-50
2024/04/19 07:31:13;;;;;;;2.30;0.50;;;;;;;7.53;100.00;99273.17;106001;1256;66917;-55
2024/04/19 07:33:40;;;;;;;0.50;0.50;;;;;;;7.53;100.00;99273.39;106272;1254;72705;-53
2024/04/19 07:36:08;;;;;;;0.40;0.40;;;;;;;7.55;100.00;99277.58;105996;1264;61176;-57
2024/04/19 07:38:35;;;;;;;0.50;0.50;;;;;;;7.60;100.00;99281.81;106684;1258;61234;-52
2024/04/19 07:41:03;;;;;;;0.70;0.50;;;;;;;7.68;100.00;99283.10;108962;1256;75648;-53
2024/04/19 07:43:30;;;;;;;0.50;0.40;;;;;;;7.76;100.00;99288.95;109054;1254;66759;-52
2024/04/19 07:45:57;;;;;;;0.50;0.50;;;;;;;7.84;100.00;99296.99;109042;1255;72613;-52
2024/04/19 07:48:24;;;;;;;1.40;0.50;;;;;;;7.87;100.00;99293.64;109092;1255;61762;-53
2024/04/19 07:50:51;;;;;;;1.20;0.40;;;;;;;7.88;100.00;99301.29;109067;1254;60271;-52
2024/04/19 07:53:20;;;;;;;1.10;0.50;;;;;;;7.91;100.00;99306.52;109051;1253;73371;-52
2024/04/19 07:55:47;;;;;;;2.70;0.60;;;;;;;7.97;100.00;99312.31;107380;1256;65607;-51
2024/04/19 07:58:14;;;;;;;1.50;0.70;;;;;;;8.04;100.00;99318.46;105988;1259;72534;-53
2024/04/19 08:00:41;;;;;;;1.10;0.50;;;;;;;8.11;100.00;99322.41;109086;1254;60681;-51
2024/04/19 08:03:08;;;;;;;1.20;0.50;;;;;;;8.12;100.00;99333.80;109066;1255;61220;-52
2024/04/19 08:05:34;;;;;;;1.20;0.40;;;;;;;8.12;100.00;99340.79;108900;1253;74291;-55
2024/04/19 08:08:01;;;;;;;2.60;0.40;;;;;;;8.09;100.00;99343.05;109118;1254;66875;-52
2024/04/19 08:10:28;;;;;;;0.60;0.50;;;;;;;8.07;100.00;99353.15;108952;1254;72240;-52
2024/04/19 08:12:58;;;;;;;2.40;0.40;;;;;;;8.07;100.00;99353.88;109084;1254;62673;-52
2024/04/19 08:15:25;;;;;;;1.70;0.50;;;;;;;8.10;100.00;99363.74;109060;1254;59172;-54
2024/04/19 08:17:52;;;;;;;0.70;0.50;;;;;;;8.13;100.00;99363.77;109069;1254;75523;-52
2024/04/19 08:20:19;;;;;;;0.60;0.50;;;;;;;8.18;100.00;99365.15;106568;1259;68255;-53
2024/04/19 08:22:46;;;;;;;1.30;0.40;;;;;;;8.25;100.00;99363.41;106027;1261;72181;-51
2024/04/19 08:25:12;;;;;;;0.40;0.40;;;;;;;8.30;100.00;99372.13;106094;1257;61459;-57
2024/04/19 08:27:39;;;;;;;1.30;0.40;;;;;;;8.36;100.00;99378.32;105982;1258;65194;-52
2024/04/19 08:30:07;;;;;;;0.30;0.30;;;;;;;8.44;100.00;99384.41;106018;1259;75270;-53
2024/04/19 08:32:34;;;;;;;0.90;0.30;;;;;;;8.50;100.00;99393.80;106417;1259;66468;-56
2024/04/19 08:35:03;;;;;;;0.60;0.40;;;;;;;8.56;100.00;99403.52;105933;1258;73039;-52
2024/04/19 08:37:31;;;;;;;3.00;0.40;;;;;;;8.62;100.00;99409.86;106830;1259;61306;-53
2024/04/19 08:39:59;;;;;;;1.10;0.30;;;;;;;8.68;100.00;99417.09;106521;1255;61302;-56
2024/04/19 08:42:26;;;;;;;0.40;0.40;;;;;;;8.72;100.00;99423.88;106114;1259;74606;-53
2024/04/19 08:44:53;;;;;;;0.60;0.30;;;;;;;8.75;100.00;99430.41;106143;1255;67051;-57
2024/04/19 08:47:20;;;;;;;1.00;0.40;;;;;;;8.78;100.00;99436.33;105858;1255;72594;-51
2024/04/19 08:49:49;;;;;;;0.40;0.40;;;;;;;8.78;100.00;99440.59;105933;1257;61563;-54
2024/04/19 08:52:19;;;;;;;5.80;0.40;;;;;;;8.80;100.00;99454.29;106387;1256;61028;-54
2024/04/19 08:55:08;;;;;;;1.70;0.30;;;;;;;8.79;100.00;99451.83;106064;1256;75770;-52
2024/04/19 08:57:35;;;;;;;0.50;0.40;;;;;;;8.77;100.00;99456.96;106119;1253;66801;-53
2024/04/19 09:00:06;;;;;;;1.00;0.40;;;;;;;8.76;100.00;99461.14;106638;1255;73370;-52
2024/04/19 09:02:41;;;;;;;1.80;0.30;;;;;;;8.76;100.00;99464.35;105879;1255;61583;-52
2024/04/19 09:05:07;;;;;;;1.20;0.20;;;;;;;8.79;100.00;99465.45;105980;1259;62229;-51
2024/04/19 09:07:35;;;;;;;1.30;0.40;;;;;;;8.85;100.00;99470.14;105994;1257;74510;-53
2024/04/19 09:10:02;;;;;;;0.30;0.30;;;;;;;8.91;100.00;99470.81;106176;1259;66997;-54
2024/04/19 09:12:33;;;;;;;1.60;0.30;;;;;;;8.94;100.00;99480.48;105900;1258;72103;-52
2024/04/19 09:15:00;;;;;;;0.60;0.30;;;;;;;8.98;100.00;99484.06;106215;1255;61811;-50
2024/04/19 09:17:28;;;;;;;0.50;0.30;;;;;;;8.99;100.00;99489.39;106212;1259;61200;-52
2024/04/19 09:19:56;;;;;;;0.70;0.30;;;;;;;8.98;100.00;99491.23;106071;1271;74277;-51
2024/04/19 09:22:24;;;;;;;3.40;0.40;;;;;;;8.97;100.00;99493.97;106040;1259;67059;-52
2024/04/19 09:24:54;;;;;;;0.50;0.30;;;;;;;8.92;100.00;99493.27;105940;1259;70573;-51
2024/04/19 09:27:21;;;;;;;0.40;0.30;;;;;;;8.87;100.00;99500.87;106298;1259;61363;-52
2024/04/19 09:29:49;;;;;;;0.40;0.30;;;;;;;8.84;100.00;99502.77;106225;1259;61280;-52
2024/04/19 09:32:20;;;;;;;2.10;0.40;;;;;;;8.82;100.00;99510.02;106030;1257;73226;-51
2024/04/19 09:34:48;;;;;;;0.60;0.30;;;;;;;8.78;100.00;99524.88;106146;1256;67073;-51
2024/04/19 09:37:15;;;;;;;3.90;0.30;;;;;;;8.74;100.00;99527.39;106081;1258;72703;-54
2024/04/19 09:39:42;;;;;;;0.70;0.30;;;;;;;8.69;100.00;99533.67;106344;1259;61733;-50
2024/04/19 09:42:08;;;;;;;0.20;0.20;;;;;;;8.64;100.00;99541.63;106042;1269;62007;-52
2024/04/19 09:44:36;;;;;;;0.30;0.30;;;;;;;8.59;100.00;99542.02;105873;1256;73778;-51
2024/04/19 09:47:04;;;;;;;1.30;0.40;;;;;;;8.55;100.00;99547.88;106201;1256;67276;-53
2024/04/19 09:49:32;;;;;;;1.10;0.30;;;;;;;8.51;100.00;99548.80;106144;1272;71772;-51
2024/04/19 09:51:59;;;;;;;0.30;0.30;;;;;;;8.46;100.00;99553.66;105946;1259;61335;-52
2024/04/19 09:54:26;;;;;;;0.80;0.20;;;;;;;8.43;100.00;99564.31;105803;1261;61219;-52
2024/04/19 09:57:00;;;;;;;1.30;0.30;;;;;;;8.39;100.00;99571.48;105790;1261;75616;-54
2024/04/19 09:59:29;;;;;;;1.70;0.30;;;;;;;8.35;100.00;99574.86;105890;1262;68083;-53
2024/04/19 10:01:56;;;;;;;3.50;0.30;;;;;;;8.33;100.00;99579.08;105919;1269;71726;-53
2024/04/19 10:04:25;;;;;;;0.40;0.30;;;;;;;8.31;100.00;99581.82;105865;1262;61348;-53
2024/04/19 10:06:52;;;;;;;0.70;0.20;;;;;;;8.32;100.00;99583.59;107653;1256;60834;-54
2024/04/19 10:09:25;;;;;;;0.30;0.20;;;;;;;8.38;100.00;99586.54;106256;1261;75575;-54
2024/04/19 10:11:53;;;;;;;0.20;0.20;;;;;;;8.48;100.00;99593.25;106954;1260;68139;-50
2024/04/19 10:14:21;;;;;;;1.00;0.30;;;;;;;8.62;100.00;99588.00;105994;1261;72433;-52
2024/04/19 10:16:48;;;;;;;1.20;0.40;;;;;;;8.79;100.00;99592.48;106109;1259;61290;-54
2024/04/19 10:19:16;;;;;;;0.40;0.30;;;;;;;8.94;100.00;99594.46;105890;1256;62535;-54
2024/04/19 10:21:43;;;;;;;0.40;0.20;;;;;;;9.07;100.00;99598.71;106098;1261;73510;-52
2024/04/19 10:24:16;;;;;;;1.70;0.20;;;;;;;9.17;100.00;99599.36;106206;1257;66436;-55
2024/04/19 10:26:50;;;;;;;0.30;0.20;;;;;;;9.27;100.00;99605.21;106120;1259;71384;-53
2024/04/19 10:29:17;;;;;;;0.20;0.20;;;;;;;9.38;100.00;99612.02;107283;1261;61644;-54
2024/04/19 10:31:50;;;;;;;2.60;0.20;;;;;;;9.46;100.00;99615.55;106576;1261;60564;-51
2024/04/19 10:34:17;;;;;;;0.90;0.30;;;;;;;9.52;100.00;99619.63;106099;1259;74011;-54
2024/04/19 10:36:47;;;;;;;0.50;0.30;;;;;;;9.53;100.00;99624.39;108957;1256;66955;-54
2024/04/19 10:39:14;;;;;;;0.30;0.30;;;;;;;9.55;100.00;99628.97;108925;1256;73033;-54
2024/04/19 10:41:49;;;;;;;0.50;0.30;;;;;;;9.54;100.00;99632.20;108547;1256;60013;-54
2024/04/19 10:44:16;;;;;;;0.30;0.20;;;;;;;9.55;100.00;99646.87;108867;1257;59469;-52
2024/04/19 10:46:47;;;;;;;2.70;0.30;;;;;;;9.51;100.00;99653.30;108811;1256;73012;-54
2024/04/19 10:49:20;;;;;;;5.00;0.60;;;;;;;9.42;100.00;99651.61;108987;1254;66450;-53
2024/04/19 10:51:49;;;;;;;1.60;0.30;;;;;;;9.35;100.00;99656.92;109041;1255;72574;-54
2024/04/19 10:54:16;;;;;;;0.50;0.40;;;;;;;9.31;100.00;99665.15;109142;1258;60174;-54
2024/04/19 10:56:43;;;;;;;0.30;0.20;;;;;;;9.25;100.00;99666.52;109027;1254;60126;-52
2024/04/19 10:59:10;;;;;;;2.50;0.40;;;;;;;9.19;100.00;99669.08;108947;1256;74015;-54
2024/04/19 11:01:38;;;;;;;0.50;0.40;;;;;;;9.17;100.00;99670.98;109192;1253;67506;-53
2024/04/19 11:04:05;;;;;;;0.30;0.30;;;;;;;9.16;100.00;99678.38;109271;1253;73390;-53
2024/04/19 11:06:32;;;;;;;0.40;0.20;;;;;;;9.15;100.00;99686.12;109165;1253;59353;-54
2024/04/19 11:08:59;;;;;;;2.10;0.30;;;;;;;9.13;100.00;99682.06;109282;1253;59281;-54
2024/04/19 11:11:26;;;;;;;0.20;0.20;;;;;;;9.10;100.00;99682.57;109235;1253;73402;-53
2024/04/19 11:13:52;;;;;;;0.70;0.30;;;;;;;9.05;100.00;99687.05;109307;1253;65920;-53
2024/04/19 11:16:19;;;;;;;1.30;0.30;;;;;;;9.03;100.00;99687.34;109227;1253;72577;-53
2024/04/19 11:18:46;;;;;;;0.20;0.20;;;;;;;9.01;100.00;99690.48;109278;1253;59520;-52
2024/04/19 11:21:13;;;;;;;0.40;0.20;;;;;;;9.01;100.00;99693.33;109204;1253;61339;-52
2024/04/19 11:23:40;;;;;;;0.60;0.20;;;;;;;9.03;100.00;99692.48;108256;1253;74067;-53
2024/04/19 11:26:07;;;;;;;0.20;0.20;;;;;;;9.06;100.00;99695.45;106265;1257;67429;-53
2024/04/19 11:28:34;;;;;;;0.90;0.20;;;;;;;9.13;100.00;99697.13;106343;1257;72356;-55
2024/04/19 11:31:08;;;;;;;0.50;0.30;;;;;;;9.21;100.00;99697.13;106383;1257;60221;-50
2024/04/19 11:33:35;;;;;;;0.40;0.40;;;;;;;9.29;100.00;99699.78;109208;1253;59108;-53
2024/04/19 11:36:07;;;;;;;1.60;0.30;;;;;;;9.34;100.00;99700.86;106881;1256;74000;-51